sensor_id;sensor_type;location;lat;lon;timestamp;temperature;humidity
47861;HTU21D;33620;52.340;5.984;2023-06-14T00:01:00;21.15;40.92
47861;HTU21D;33620;52.340;5.984;2023-06-14T00:03:28;21.16;40.74
47861;HTU21D;33620;52.340;5.984;2023-06-14T00:05:54;21.13;40.60
47861;HTU21D;33620;52.340;5.984;2023-06-14T00:08:19;21.09;40.57
47861;HTU21D;33620;52.340;5.984;2023-06-14T00:10:46;21.07;40.62
47861;HTU21D;33620;52.340;5.984;2023-06-14T00:13:12;21.07;40.52
47861;HTU21D;33620;52.340;5.984;2023-06-14T00:15:37;21.09;40.43
47861;HTU21D;33620;52.340;5.984;2023-06-14T00:18:04;21.07;40.20
47861;HTU21D;33620;52.340;5.984;2023-06-14T00:20:31;21.02;40.42
47861;HTU21D;33620;52.340;5.984;2023-06-14T00:22:58;21.01;40.46
47861;HTU21D;33620;52.340;5.984;2023-06-14T00:25:24;21.00;40.32
47861;HTU21D;33620;52.340;5.984;2023-06-14T00:27:54;20.91;40.28
47861;HTU21D;33620;52.340;5.984;2023-06-14T00:30:19;20.86;40.47
47861;HTU21D;33620;52.340;5.984;2023-06-14T00:32:45;20.85;40.47
47861;HTU21D;33620;52.340;5.984;2023-06-14T00:35:11;20.86;40.50
47861;HTU21D;33620;52.340;5.984;2023-06-14T00:37:37;20.80;40.50
47861;HTU21D;33620;52.340;5.984;2023-06-14T00:40:03;20.76;40.65
47861;HTU21D;33620;52.340;5.984;2023-06-14T00:42:30;20.75;40.52
47861;HTU21D;33620;52.340;5.984;2023-06-14T00:44:56;20.69;40.52
47861;HTU21D;33620;52.340;5.984;2023-06-14T00:47:22;20.64;40.63
47861;HTU21D;33620;52.340;5.984;2023-06-14T00:49:48;20.60;40.62
47861;HTU21D;33620;52.340;5.984;2023-06-14T00:52:14;20.55;40.90
47861;HTU21D;33620;52.340;5.984;2023-06-14T00:54:40;20.54;40.83
47861;HTU21D;33620;52.340;5.984;2023-06-14T00:57:10;20.54;40.85
47861;HTU21D;33620;52.340;5.984;2023-06-14T00:59:48;20.51;41.07
47861;HTU21D;33620;52.340;5.984;2023-06-14T01:02:15;20.48;40.99
47861;HTU21D;33620;52.340;5.984;2023-06-14T01:04:40;20.44;41.10
47861;HTU21D;33620;52.340;5.984;2023-06-14T01:10:09;20.40;41.36
47861;HTU21D;33620;52.340;5.984;2023-06-14T01:12:58;20.35;41.45
47861;HTU21D;33620;52.340;5.984;2023-06-14T01:15:24;20.35;41.32
47861;HTU21D;33620;52.340;5.984;2023-06-14T01:17:51;20.36;41.23
47861;HTU21D;33620;52.340;5.984;2023-06-14T01:20:17;20.32;41.31
47861;HTU21D;33620;52.340;5.984;2023-06-14T01:22:52;20.28;41.52
47861;HTU21D;33620;52.340;5.984;2023-06-14T01:25:22;20.26;41.53
47861;HTU21D;33620;52.340;5.984;2023-06-14T01:27:50;20.21;41.50
47861;HTU21D;33620;52.340;5.984;2023-06-14T01:30:17;20.17;41.71
47861;HTU21D;33620;52.340;5.984;2023-06-14T01:32:43;20.17;41.62
47861;HTU21D;33620;52.340;5.984;2023-06-14T01:35:10;20.11;41.79
47861;HTU21D;33620;52.340;5.984;2023-06-14T01:37:35;20.09;42.00
47861;HTU21D;33620;52.340;5.984;2023-06-14T01:40:04;20.05;41.94
47861;HTU21D;33620;52.340;5.984;2023-06-14T01:42:33;20.01;42.05
47861;HTU21D;33620;52.340;5.984;2023-06-14T01:45:00;20.00;42.08
47861;HTU21D;33620;52.340;5.984;2023-06-14T01:47:26;19.95;42.15
47861;HTU21D;33620;52.340;5.984;2023-06-14T01:49:52;19.88;42.32
47861;HTU21D;33620;52.340;5.984;2023-06-14T01:52:17;19.82;42.36
47861;HTU21D;33620;52.340;5.984;2023-06-14T01:54:44;19.79;42.39
47861;HTU21D;33620;52.340;5.984;2023-06-14T01:57:11;19.74;42.65
47861;HTU21D;33620;52.340;5.984;2023-06-14T01:59:37;19.75;42.63
47861;HTU21D;33620;52.340;5.984;2023-06-14T02:02:03;19.70;42.75
47861;HTU21D;33620;52.340;5.984;2023-06-14T02:04:28;19.69;42.82
47861;HTU21D;33620;52.340;5.984;2023-06-14T02:06:54;19.66;42.84
47861;HTU21D;33620;52.340;5.984;2023-06-14T02:09:19;19.66;42.77
47861;HTU21D;33620;52.340;5.984;2023-06-14T02:11:44;19.60;43.02
47861;HTU21D;33620;52.340;5.984;2023-06-14T02:14:10;19.57;43.00
47861;HTU21D;33620;52.340;5.984;2023-06-14T02:16:37;19.56;42.96
47861;HTU21D;33620;52.340;5.984;2023-06-14T02:19:04;19.46;43.48
47861;HTU21D;33620;52.340;5.984;2023-06-14T02:21:29;19.40;43.68
47861;HTU21D;33620;52.340;5.984;2023-06-14T02:23:55;19.38;43.59
47861;HTU21D;33620;52.340;5.984;2023-06-14T02:26:21;19.35;43.52
47861;HTU21D;33620;52.340;5.984;2023-06-14T02:28:48;19.31;43.73
47861;HTU21D;33620;52.340;5.984;2023-06-14T02:31:13;19.24;44.09
47861;HTU21D;33620;52.340;5.984;2023-06-14T02:33:38;19.25;44.10
47861;HTU21D;33620;52.340;5.984;2023-06-14T02:36:04;19.23;44.09
47861;HTU21D;33620;52.340;5.984;2023-06-14T02:38:30;19.14;44.19
47861;HTU21D;33620;52.340;5.984;2023-06-14T02:40:55;19.07;44.35
47861;HTU21D;33620;52.340;5.984;2023-06-14T02:43:21;18.99;44.73
47861;HTU21D;33620;52.340;5.984;2023-06-14T02:45:46;18.98;44.80
47861;HTU21D;33620;52.340;5.984;2023-06-14T02:48:12;18.92;44.92
47861;HTU21D;33620;52.340;5.984;2023-06-14T02:50:37;18.94;44.93
47861;HTU21D;33620;52.340;5.984;2023-06-14T02:53:02;18.88;45.29
47861;HTU21D;33620;52.340;5.984;2023-06-14T02:55:28;18.89;45.28
47861;HTU21D;33620;52.340;5.984;2023-06-14T02:57:54;18.82;45.27
47861;HTU21D;33620;52.340;5.984;2023-06-14T03:00:19;18.78;45.54
47861;HTU21D;33620;52.340;5.984;2023-06-14T03:02:45;18.72;45.66
47861;HTU21D;33620;52.340;5.984;2023-06-14T03:05:11;18.66;45.93
47861;HTU21D;33620;52.340;5.984;2023-06-14T03:07:36;18.63;45.93
47861;HTU21D;33620;52.340;5.984;2023-06-14T03:10:09;18.61;46.19
47861;HTU21D;33620;52.340;5.984;2023-06-14T03:12:35;18.62;46.43
47861;HTU21D;33620;52.340;5.984;2023-06-14T03:15:02;18.66;46.25
47861;HTU21D;33620;52.340;5.984;2023-06-14T03:17:27;18.61;46.44
47861;HTU21D;33620;52.340;5.984;2023-06-14T03:19:55;18.50;46.73
47861;HTU21D;33620;52.340;5.984;2023-06-14T03:22:20;18.50;46.78
47861;HTU21D;33620;52.340;5.984;2023-06-14T03:24:47;18.48;46.78
47861;HTU21D;33620;52.340;5.984;2023-06-14T03:27:13;18.47;46.86
47861;HTU21D;33620;52.340;5.984;2023-06-14T03:29:39;18.50;46.95
47861;HTU21D;33620;52.340;5.984;2023-06-14T03:32:05;18.42;47.21
47861;HTU21D;33620;52.340;5.984;2023-06-14T03:34:30;18.37;47.28
47861;HTU21D;33620;52.340;5.984;2023-06-14T03:36:56;18.37;47.45
47861;HTU21D;33620;52.340;5.984;2023-06-14T03:39:21;18.32;47.64
47861;HTU21D;33620;52.340;5.984;2023-06-14T03:41:47;18.27;47.73
47861;HTU21D;33620;52.340;5.984;2023-06-14T03:44:15;18.20;48.10
47861;HTU21D;33620;52.340;5.984;2023-06-14T03:46:40;18.22;48.22
47861;HTU21D;33620;52.340;5.984;2023-06-14T03:49:06;18.23;48.17
47861;HTU21D;33620;52.340;5.984;2023-06-14T03:51:32;18.19;48.28
47861;HTU21D;33620;52.340;5.984;2023-06-14T03:54:00;18.12;48.66
47861;HTU21D;33620;52.340;5.984;2023-06-14T03:56:25;18.13;48.72
47861;HTU21D;33620;52.340;5.984;2023-06-14T03:58:52;18.18;48.68
47861;HTU21D;33620;52.340;5.984;2023-06-14T04:01:17;18.18;48.81
47861;HTU21D;33620;52.340;5.984;2023-06-14T04:03:42;18.18;49.02
47861;HTU21D;33620;52.340;5.984;2023-06-14T04:06:08;18.20;49.15
47861;HTU21D;33620;52.340;5.984;2023-06-14T04:08:33;18.24;49.08
47861;HTU21D;33620;52.340;5.984;2023-06-14T04:11:00;18.21;49.18
47861;HTU21D;33620;52.340;5.984;2023-06-14T04:13:25;18.23;49.15
47861;HTU21D;33620;52.340;5.984;2023-06-14T04:15:51;18.22;49.27
47861;HTU21D;33620;52.340;5.984;2023-06-14T04:18:16;18.19;49.69
47861;HTU21D;33620;52.340;5.984;2023-06-14T04:20:43;18.18;49.51
47861;HTU21D;33620;52.340;5.984;2023-06-14T04:23:17;18.12;49.72
47861;HTU21D;33620;52.340;5.984;2023-06-14T04:25:44;18.09;49.89
47861;HTU21D;33620;52.340;5.984;2023-06-14T04:28:13;18.10;50.18
47861;HTU21D;33620;52.340;5.984;2023-06-14T04:30:41;18.10;50.04
47861;HTU21D;33620;52.340;5.984;2023-06-14T04:33:06;18.12;50.24
47861;HTU21D;33620;52.340;5.984;2023-06-14T04:35:32;18.06;50.30
47861;HTU21D;33620;52.340;5.984;2023-06-14T04:37:58;18.04;50.62
47861;HTU21D;33620;52.340;5.984;2023-06-14T04:40:24;18.06;50.82
47861;HTU21D;33620;52.340;5.984;2023-06-14T04:42:49;18.06;50.82
47861;HTU21D;33620;52.340;5.984;2023-06-14T04:45:16;18.00;51.02
47861;HTU21D;33620;52.340;5.984;2023-06-14T04:47:41;18.08;51.20
47861;HTU21D;33620;52.340;5.984;2023-06-14T04:50:07;18.05;51.30
47861;HTU21D;33620;52.340;5.984;2023-06-14T04:52:33;17.98;51.41
47861;HTU21D;33620;52.340;5.984;2023-06-14T04:55:00;18.03;51.46
47861;HTU21D;33620;52.340;5.984;2023-06-14T04:57:27;18.00;51.76
47861;HTU21D;33620;52.340;5.984;2023-06-14T04:59:52;18.05;51.78
47861;HTU21D;33620;52.340;5.984;2023-06-14T05:02:21;18.05;51.87
47861;HTU21D;33620;52.340;5.984;2023-06-14T05:04:48;18.06;51.87
47861;HTU21D;33620;52.340;5.984;2023-06-14T05:07:13;18.11;52.11
47861;HTU21D;33620;52.340;5.984;2023-06-14T05:09:39;18.15;52.07
47861;HTU21D;33620;52.340;5.984;2023-06-14T05:12:05;18.15;52.08
47861;HTU21D;33620;52.340;5.984;2023-06-14T05:14:33;18.20;52.43
47861;HTU21D;33620;52.340;5.984;2023-06-14T05:16:59;18.24;52.75
47861;HTU21D;33620;52.340;5.984;2023-06-14T05:19:24;18.30;52.55
47861;HTU21D;33620;52.340;5.984;2023-06-14T05:21:50;18.36;52.72
47861;HTU21D;33620;52.340;5.984;2023-06-14T05:24:16;18.38;52.49
47861;HTU21D;33620;52.340;5.984;2023-06-14T05:26:43;18.41;52.58
47861;HTU21D;33620;52.340;5.984;2023-06-14T05:29:08;18.43;52.41
47861;HTU21D;33620;52.340;5.984;2023-06-14T05:31:33;18.48;52.34
47861;HTU21D;33620;52.340;5.984;2023-06-14T05:33:59;18.51;52.40
47861;HTU21D;33620;52.340;5.984;2023-06-14T05:36:24;18.56;52.08
47861;HTU21D;33620;52.340;5.984;2023-06-14T05:38:51;18.59;51.87
47861;HTU21D;33620;52.340;5.984;2023-06-14T05:41:23;18.61;51.59
47861;HTU21D;33620;52.340;5.984;2023-06-14T05:43:48;18.62;51.37
47861;HTU21D;33620;52.340;5.984;2023-06-14T05:46:14;18.63;51.89
47861;HTU21D;33620;52.340;5.984;2023-06-14T05:48:39;18.65;51.33
47861;HTU21D;33620;52.340;5.984;2023-06-14T05:51:05;18.70;51.44
47861;HTU21D;33620;52.340;5.984;2023-06-14T05:53:34;18.79;51.68
47861;HTU21D;33620;52.340;5.984;2023-06-14T05:55:59;18.84;51.65
47861;HTU21D;33620;52.340;5.984;2023-06-14T05:58:24;18.92;51.82
47861;HTU21D;33620;52.340;5.984;2023-06-14T06:00:50;18.95;51.24
47861;HTU21D;33620;52.340;5.984;2023-06-14T06:03:16;19.02;51.15
47861;HTU21D;33620;52.340;5.984;2023-06-14T06:05:41;19.05;51.02
47861;HTU21D;33620;52.340;5.984;2023-06-14T06:08:06;19.07;51.21
47861;HTU21D;33620;52.340;5.984;2023-06-14T06:10:32;19.13;50.88
47861;HTU21D;33620;52.340;5.984;2023-06-14T06:12:57;19.15;50.60
47861;HTU21D;33620;52.340;5.984;2023-06-14T06:15:23;19.16;50.24
47861;HTU21D;33620;52.340;5.984;2023-06-14T06:17:48;19.21;50.46
47861;HTU21D;33620;52.340;5.984;2023-06-14T06:20:13;19.23;50.00
47861;HTU21D;33620;52.340;5.984;2023-06-14T06:22:39;19.27;50.27
47861;HTU21D;33620;52.340;5.984;2023-06-14T06:25:05;19.32;50.10
47861;HTU21D;33620;52.340;5.984;2023-06-14T06:27:31;19.42;49.83
47861;HTU21D;33620;52.340;5.984;2023-06-14T06:29:56;19.47;50.08
47861;HTU21D;33620;52.340;5.984;2023-06-14T06:32:22;19.52;49.94
47861;HTU21D;33620;52.340;5.984;2023-06-14T06:34:47;19.53;49.62
47861;HTU21D;33620;52.340;5.984;2023-06-14T06:37:13;19.57;49.60
47861;HTU21D;33620;52.340;5.984;2023-06-14T06:39:38;19.62;48.95
47861;HTU21D;33620;52.340;5.984;2023-06-14T06:42:04;19.67;48.90
47861;HTU21D;33620;52.340;5.984;2023-06-14T06:44:30;19.73;49.02
47861;HTU21D;33620;52.340;5.984;2023-06-14T06:46:57;19.79;48.51
47861;HTU21D;33620;52.340;5.984;2023-06-14T06:49:22;19.85;48.81
47861;HTU21D;33620;52.340;5.984;2023-06-14T06:52:01;19.94;48.54
47861;HTU21D;33620;52.340;5.984;2023-06-14T06:54:29;19.96;47.60
47861;HTU21D;33620;52.340;5.984;2023-06-14T06:56:55;19.99;47.73
47861;HTU21D;33620;52.340;5.984;2023-06-14T06:59:21;20.05;47.79
47861;HTU21D;33620;52.340;5.984;2023-06-14T07:01:46;20.14;47.73
47861;HTU21D;33620;52.340;5.984;2023-06-14T07:04:12;20.20;48.32
47861;HTU21D;33620;52.340;5.984;2023-06-14T07:06:38;20.26;47.49
47861;HTU21D;33620;52.340;5.984;2023-06-14T07:09:03;20.33;47.67
47861;HTU21D;33620;52.340;5.984;2023-06-14T07:11:30;20.40;46.97
47861;HTU21D;33620;52.340;5.984;2023-06-14T07:13:55;20.47;45.67
47861;HTU21D;33620;52.340;5.984;2023-06-14T07:16:21;20.54;45.35
47861;HTU21D;33620;52.340;5.984;2023-06-14T07:18:47;20.60;45.19
47861;HTU21D;33620;52.340;5.984;2023-06-14T07:21:12;20.63;44.90
47861;HTU21D;33620;52.340;5.984;2023-06-14T07:23:37;20.66;43.60
47861;HTU21D;33620;52.340;5.984;2023-06-14T07:26:03;20.71;43.48
47861;HTU21D;33620;52.340;5.984;2023-06-14T07:28:28;20.76;43.04
47861;HTU21D;33620;52.340;5.984;2023-06-14T07:30:54;20.83;42.69
47861;HTU21D;33620;52.340;5.984;2023-06-14T07:33:19;20.91;42.50
47861;HTU21D;33620;52.340;5.984;2023-06-14T07:35:45;20.98;42.13
47861;HTU21D;33620;52.340;5.984;2023-06-14T07:38:11;21.02;41.97
47861;HTU21D;33620;52.340;5.984;2023-06-14T07:40:36;21.09;41.97
47861;HTU21D;33620;52.340;5.984;2023-06-14T07:43:01;21.14;41.72
47861;HTU21D;33620;52.340;5.984;2023-06-14T07:45:27;21.13;41.23
47861;HTU21D;33620;52.340;5.984;2023-06-14T07:47:52;21.18;41.40
47861;HTU21D;33620;52.340;5.984;2023-06-14T07:50:18;21.22;41.16
47861;HTU21D;33620;52.340;5.984;2023-06-14T07:52:44;21.28;40.78
47861;HTU21D;33620;52.340;5.984;2023-06-14T07:55:10;21.33;40.17
47861;HTU21D;33620;52.340;5.984;2023-06-14T07:57:35;21.36;40.48
47861;HTU21D;33620;52.340;5.984;2023-06-14T08:00:01;21.44;40.33
47861;HTU21D;33620;52.340;5.984;2023-06-14T08:02:26;21.50;40.33
47861;HTU21D;33620;52.340;5.984;2023-06-14T08:04:51;21.55;40.14
47861;HTU21D;33620;52.340;5.984;2023-06-14T08:07:17;21.64;40.29
47861;HTU21D;33620;52.340;5.984;2023-06-14T08:09:43;21.73;39.80
47861;HTU21D;33620;52.340;5.984;2023-06-14T08:12:08;21.81;40.32
47861;HTU21D;33620;52.340;5.984;2023-06-14T08:14:36;21.93;39.78
47861;HTU21D;33620;52.340;5.984;2023-06-14T08:17:02;21.98;38.01
47861;HTU21D;33620;52.340;5.984;2023-06-14T08:19:27;22.04;38.53
47861;HTU21D;33620;52.340;5.984;2023-06-14T08:21:53;22.07;37.39
47861;HTU21D;33620;52.340;5.984;2023-06-14T08:24:21;22.13;37.53
47861;HTU21D;33620;52.340;5.984;2023-06-14T08:26:49;22.22;37.66
47861;HTU21D;33620;52.340;5.984;2023-06-14T08:29:15;22.33;37.55
47861;HTU21D;33620;52.340;5.984;2023-06-14T08:31:40;22.48;37.08
47861;HTU21D;33620;52.340;5.984;2023-06-14T08:34:06;22.55;36.59
47861;HTU21D;33620;52.340;5.984;2023-06-14T08:36:31;22.65;37.10
47861;HTU21D;33620;52.340;5.984;2023-06-14T08:38:56;22.79;36.78
47861;HTU21D;33620;52.340;5.984;2023-06-14T08:41:22;22.78;35.79
47861;HTU21D;33620;52.340;5.984;2023-06-14T08:43:49;22.91;36.21
47861;HTU21D;33620;52.340;5.984;2023-06-14T08:46:17;23.03;36.27
47861;HTU21D;33620;52.340;5.984;2023-06-14T08:48:46;23.23;36.53
47861;HTU21D;33620;52.340;5.984;2023-06-14T08:51:13;23.35;35.70
47861;HTU21D;33620;52.340;5.984;2023-06-14T08:53:41;23.42;36.23
47861;HTU21D;33620;52.340;5.984;2023-06-14T08:56:08;23.57;35.77
47861;HTU21D;33620;52.340;5.984;2023-06-14T08:58:44;23.58;34.68
47861;HTU21D;33620;52.340;5.984;2023-06-14T09:01:13;23.68;35.22
47861;HTU21D;33620;52.340;5.984;2023-06-14T09:03:40;23.74;34.17
47861;HTU21D;33620;52.340;5.984;2023-06-14T09:06:07;23.83;33.95
47861;HTU21D;33620;52.340;5.984;2023-06-14T09:08:34;23.92;34.03
47861;HTU21D;33620;52.340;5.984;2023-06-14T09:11:01;24.03;34.12
47861;HTU21D;33620;52.340;5.984;2023-06-14T09:13:26;24.17;33.46
47861;HTU21D;33620;52.340;5.984;2023-06-14T09:15:52;24.25;33.53
47861;HTU21D;33620;52.340;5.984;2023-06-14T09:18:17;24.29;33.09
47861;HTU21D;33620;52.340;5.984;2023-06-14T09:20:45;24.26;31.42
47861;HTU21D;33620;52.340;5.984;2023-06-14T09:23:12;24.09;30.73
47861;HTU21D;33620;52.340;5.984;2023-06-14T09:25:42;24.17;31.84
47861;HTU21D;33620;52.340;5.984;2023-06-14T09:28:08;24.15;31.46
47861;HTU21D;33620;52.340;5.984;2023-06-14T09:30:36;24.20;31.17
47861;HTU21D;33620;52.340;5.984;2023-06-14T09:33:02;24.33;31.86
47861;HTU21D;33620;52.340;5.984;2023-06-14T09:35:27;24.46;31.28
47861;HTU21D;33620;52.340;5.984;2023-06-14T09:37:56;24.57;30.67
47861;HTU21D;33620;52.340;5.984;2023-06-14T09:40:21;24.64;30.52
47861;HTU21D;33620;52.340;5.984;2023-06-14T09:42:47;24.65;30.29
47861;HTU21D;33620;52.340;5.984;2023-06-14T09:45:13;24.75;30.23
47861;HTU21D;33620;52.340;5.984;2023-06-14T09:47:39;24.74;29.33
47861;HTU21D;33620;52.340;5.984;2023-06-14T09:50:05;24.77;29.35
47861;HTU21D;33620;52.340;5.984;2023-06-14T09:52:31;24.76;28.25
47861;HTU21D;33620;52.340;5.984;2023-06-14T09:54:59;24.82;29.68
47861;HTU21D;33620;52.340;5.984;2023-06-14T09:57:25;24.83;29.60
47861;HTU21D;33620;52.340;5.984;2023-06-14T09:59:54;24.95;29.04
47861;HTU21D;33620;52.340;5.984;2023-06-14T10:02:25;24.90;28.63
47861;HTU21D;33620;52.340;5.984;2023-06-14T10:05:11;24.91;28.76
47861;HTU21D;33620;52.340;5.984;2023-06-14T10:08:00;24.95;27.98
47861;HTU21D;33620;52.340;5.984;2023-06-14T10:10:28;25.01;28.45
47861;HTU21D;33620;52.340;5.984;2023-06-14T10:12:54;24.80;27.45
47861;HTU21D;33620;52.340;5.984;2023-06-14T10:15:26;24.78;27.77
47861;HTU21D;33620;52.340;5.984;2023-06-14T10:18:48;25.00;28.94
47861;HTU21D;33620;52.340;5.984;2023-06-14T10:21:13;25.09;28.72
47861;HTU21D;33620;52.340;5.984;2023-06-14T10:23:42;25.29;29.09
47861;HTU21D;33620;52.340;5.984;2023-06-14T10:26:18;25.37;29.02
47861;HTU21D;33620;52.340;5.984;2023-06-14T10:28:55;25.44;28.23
47861;HTU21D;33620;52.340;5.984;2023-06-14T10:31:21;25.32;28.53
47861;HTU21D;33620;52.340;5.984;2023-06-14T10:33:56;25.22;27.30
47861;HTU21D;33620;52.340;5.984;2023-06-14T10:38:57;25.24;27.09
47861;HTU21D;33620;52.340;5.984;2023-06-14T10:41:23;25.17;26.40
47861;HTU21D;33620;52.340;5.984;2023-06-14T10:43:48;25.13;26.63
47861;HTU21D;33620;52.340;5.984;2023-06-14T10:46:18;25.10;26.70
47861;HTU21D;33620;52.340;5.984;2023-06-14T10:48:46;25.08;26.67
47861;HTU21D;33620;52.340;5.984;2023-06-14T10:51:19;25.09;26.56
47861;HTU21D;33620;52.340;5.984;2023-06-14T10:53:49;25.13;27.09
47861;HTU21D;33620;52.340;5.984;2023-06-14T10:56:30;25.12;27.07
47861;HTU21D;33620;52.340;5.984;2023-06-14T10:58:57;24.95;26.71
47861;HTU21D;33620;52.340;5.984;2023-06-14T11:01:36;25.07;26.94
47861;HTU21D;33620;52.340;5.984;2023-06-14T11:04:10;25.24;27.07
47861;HTU21D;33620;52.340;5.984;2023-06-14T11:06:48;25.10;27.04
47861;HTU21D;33620;52.340;5.984;2023-06-14T11:11:46;25.30;27.15
47861;HTU21D;33620;52.340;5.984;2023-06-14T11:14:11;25.48;27.43
47861;HTU21D;33620;52.340;5.984;2023-06-14T11:16:37;25.47;26.45
47861;HTU21D;33620;52.340;5.984;2023-06-14T11:19:02;25.50;27.50
47861;HTU21D;33620;52.340;5.984;2023-06-14T11:21:34;25.60;27.20
47861;HTU21D;33620;52.340;5.984;2023-06-14T11:23:59;25.69;26.50
47861;HTU21D;33620;52.340;5.984;2023-06-14T11:26:26;25.74;26.46
47861;HTU21D;33620;52.340;5.984;2023-06-14T11:28:58;25.58;26.06
47861;HTU21D;33620;52.340;5.984;2023-06-14T11:31:25;25.62;26.26
47861;HTU21D;33620;52.340;5.984;2023-06-14T11:33:50;25.71;26.49
47861;HTU21D;33620;52.340;5.984;2023-06-14T11:36:16;25.74;26.32
47861;HTU21D;33620;52.340;5.984;2023-06-14T11:38:42;25.84;25.77
47861;HTU21D;33620;52.340;5.984;2023-06-14T11:41:07;25.95;25.46
47861;HTU21D;33620;52.340;5.984;2023-06-14T11:43:32;26.06;25.80
47861;HTU21D;33620;52.340;5.984;2023-06-14T11:46:00;26.16;26.01
47861;HTU21D;33620;52.340;5.984;2023-06-14T11:48:42;26.01;24.65
47861;HTU21D;33620;52.340;5.984;2023-06-14T11:51:07;26.02;25.30
47861;HTU21D;33620;52.340;5.984;2023-06-14T11:53:33;26.21;25.11
47861;HTU21D;33620;52.340;5.984;2023-06-14T11:55:59;26.35;25.92
47861;HTU21D;33620;52.340;5.984;2023-06-14T11:58:25;26.45;25.59
47861;HTU21D;33620;52.340;5.984;2023-06-14T12:00:52;26.50;25.56
47861;HTU21D;33620;52.340;5.984;2023-06-14T12:03:22;26.40;24.91
47861;HTU21D;33620;52.340;5.984;2023-06-14T12:05:48;26.41;25.17
47861;HTU21D;33620;52.340;5.984;2023-06-14T12:08:13;26.45;24.63
47861;HTU21D;33620;52.340;5.984;2023-06-14T12:10:42;26.50;25.11
47861;HTU21D;33620;52.340;5.984;2023-06-14T12:13:10;26.60;25.46
47861;HTU21D;33620;52.340;5.984;2023-06-14T12:15:36;26.67;25.81
47861;HTU21D;33620;52.340;5.984;2023-06-14T12:18:05;26.73;25.05
47861;HTU21D;33620;52.340;5.984;2023-06-14T12:20:31;26.68;24.89
47861;HTU21D;33620;52.340;5.984;2023-06-14T12:23:03;26.66;24.66
47861;HTU21D;33620;52.340;5.984;2023-06-14T12:25:31;26.75;24.49
47861;HTU21D;33620;52.340;5.984;2023-06-14T12:28:04;26.69;24.45
47861;HTU21D;33620;52.340;5.984;2023-06-14T12:30:31;26.78;24.60
47861;HTU21D;33620;52.340;5.984;2023-06-14T12:32:56;26.78;24.70
47861;HTU21D;33620;52.340;5.984;2023-06-14T12:35:21;26.83;24.49
47861;HTU21D;33620;52.340;5.984;2023-06-14T12:37:47;26.94;25.35
47861;HTU21D;33620;52.340;5.984;2023-06-14T12:40:13;26.93;24.70
47861;HTU21D;33620;52.340;5.984;2023-06-14T12:42:38;26.86;23.98
47861;HTU21D;33620;52.340;5.984;2023-06-14T12:45:04;26.81;23.77
47861;HTU21D;33620;52.340;5.984;2023-06-14T12:47:30;26.87;23.98
47861;HTU21D;33620;52.340;5.984;2023-06-14T12:49:55;26.86;24.27
47861;HTU21D;33620;52.340;5.984;2023-06-14T12:52:21;26.91;24.65
47861;HTU21D;33620;52.340;5.984;2023-06-14T12:54:46;27.02;25.27
47861;HTU21D;33620;52.340;5.984;2023-06-14T12:57:11;27.02;24.29
47861;HTU21D;33620;52.340;5.984;2023-06-14T12:59:37;26.98;24.96
47861;HTU21D;33620;52.340;5.984;2023-06-14T13:02:12;27.04;24.10
47861;HTU21D;33620;52.340;5.984;2023-06-14T13:04:38;26.96;24.98
47861;HTU21D;33620;52.340;5.984;2023-06-14T13:07:04;26.91;24.43
47861;HTU21D;33620;52.340;5.984;2023-06-14T13:09:29;26.93;24.97
47861;HTU21D;33620;52.340;5.984;2023-06-14T13:11:55;26.91;24.15
47861;HTU21D;33620;52.340;5.984;2023-06-14T13:14:20;26.85;24.53
47861;HTU21D;33620;52.340;5.984;2023-06-14T13:16:45;26.80;24.32
47861;HTU21D;33620;52.340;5.984;2023-06-14T13:19:11;26.69;24.20
47861;HTU21D;33620;52.340;5.984;2023-06-14T13:21:36;26.67;24.36
47861;HTU21D;33620;52.340;5.984;2023-06-14T13:24:02;26.75;24.59
47861;HTU21D;33620;52.340;5.984;2023-06-14T13:26:27;26.76;24.12
47861;HTU21D;33620;52.340;5.984;2023-06-14T13:28:52;26.73;23.87
47861;HTU21D;33620;52.340;5.984;2023-06-14T13:31:18;26.75;23.60
47861;HTU21D;33620;52.340;5.984;2023-06-14T13:33:43;26.89;24.27
47861;HTU21D;33620;52.340;5.984;2023-06-14T13:36:09;27.00;24.16
47861;HTU21D;33620;52.340;5.984;2023-06-14T13:38:35;27.16;23.85
47861;HTU21D;33620;52.340;5.984;2023-06-14T13:41:00;27.28;23.24
47861;HTU21D;33620;52.340;5.984;2023-06-14T13:43:26;27.31;23.56
47861;HTU21D;33620;52.340;5.984;2023-06-14T13:45:51;27.36;23.59
47861;HTU21D;33620;52.340;5.984;2023-06-14T13:48:17;27.44;23.98
47861;HTU21D;33620;52.340;5.984;2023-06-14T13:50:42;27.50;23.20
47861;HTU21D;33620;52.340;5.984;2023-06-14T13:53:07;27.54;23.75
47861;HTU21D;33620;52.340;5.984;2023-06-14T13:55:33;27.60;22.98
47861;HTU21D;33620;52.340;5.984;2023-06-14T13:57:58;27.67;22.90
47861;HTU21D;33620;52.340;5.984;2023-06-14T14:00:24;27.59;22.96
47861;HTU21D;33620;52.340;5.984;2023-06-14T14:02:49;27.70;22.76
47861;HTU21D;33620;52.340;5.984;2023-06-14T14:05:15;27.65;23.27
47861;HTU21D;33620;52.340;5.984;2023-06-14T14:07:41;27.60;22.29
47861;HTU21D;33620;52.340;5.984;2023-06-14T14:10:07;27.37;22.88
47861;HTU21D;33620;52.340;5.984;2023-06-14T14:12:33;27.34;23.42
47861;HTU21D;33620;52.340;5.984;2023-06-14T14:14:59;27.27;23.45
47861;HTU21D;33620;52.340;5.984;2023-06-14T14:17:24;27.30;22.85
47861;HTU21D;33620;52.340;5.984;2023-06-14T14:19:50;27.26;23.91
47861;HTU21D;33620;52.340;5.984;2023-06-14T14:22:15;27.42;23.14
47861;HTU21D;33620;52.340;5.984;2023-06-14T14:24:41;27.47;23.13
47861;HTU21D;33620;52.340;5.984;2023-06-14T14:27:06;27.56;22.82
47861;HTU21D;33620;52.340;5.984;2023-06-14T14:29:33;27.70;23.05
47861;HTU21D;33620;52.340;5.984;2023-06-14T14:31:58;27.76;22.53
47861;HTU21D;33620;52.340;5.984;2023-06-14T14:34:24;27.79;22.84
47861;HTU21D;33620;52.340;5.984;2023-06-14T14:36:50;27.81;23.12
47861;HTU21D;33620;52.340;5.984;2023-06-14T14:39:15;27.85;22.35
47861;HTU21D;33620;52.340;5.984;2023-06-14T14:41:40;27.87;22.91
47861;HTU21D;33620;52.340;5.984;2023-06-14T14:44:06;27.66;22.43
47861;HTU21D;33620;52.340;5.984;2023-06-14T14:46:31;27.66;20.71
47861;HTU21D;33620;52.340;5.984;2023-06-14T14:48:58;27.71;21.61
47861;HTU21D;33620;52.340;5.984;2023-06-14T14:51:24;27.83;22.08
47861;HTU21D;33620;52.340;5.984;2023-06-14T14:53:49;27.59;21.73
47861;HTU21D;33620;52.340;5.984;2023-06-14T14:56:15;27.59;22.38
47861;HTU21D;33620;52.340;5.984;2023-06-14T14:58:40;27.73;22.60
47861;HTU21D;33620;52.340;5.984;2023-06-14T15:01:06;27.63;21.80
47861;HTU21D;33620;52.340;5.984;2023-06-14T15:03:32;27.54;22.63
47861;HTU21D;33620;52.340;5.984;2023-06-14T15:05:57;27.56;23.52
47861;HTU21D;33620;52.340;5.984;2023-06-14T15:08:22;27.59;22.79
47861;HTU21D;33620;52.340;5.984;2023-06-14T15:10:48;27.67;22.89
47861;HTU21D;33620;52.340;5.984;2023-06-14T15:13:13;27.69;22.40
47861;HTU21D;33620;52.340;5.984;2023-06-14T15:15:39;27.51;21.67
47861;HTU21D;33620;52.340;5.984;2023-06-14T15:18:04;27.52;21.91
47861;HTU21D;33620;52.340;5.984;2023-06-14T15:20:30;27.55;22.18